createdAt,value
2023-01-17T00:02:09.107Z,3.40
2023-01-17T00:04:54.350Z,3.20
2023-01-17T00:07:41.889Z,3.00
2023-01-17T00:10:11.717Z,2.80
2023-01-17T00:12:39.359Z,2.70
2023-01-17T00:15:07.098Z,2.50
2023-01-17T00:17:33.935Z,2.50
2023-01-17T00:20:20.230Z,2.40
2023-01-17T00:23:06.118Z,2.40
2023-01-17T00:25:57.639Z,2.40
2023-01-17T00:28:26.311Z,2.30
2023-01-17T00:30:53.498Z,2.30
2023-01-17T00:33:21.733Z,2.30
2023-01-17T00:35:48.559Z,2.30
2023-01-17T00:38:18.466Z,2.30
2023-01-17T00:40:46.075Z,2.40
2023-01-17T00:43:34.123Z,2.40
2023-01-17T00:46:19.751Z,2.40
2023-01-17T00:49:05.145Z,2.40
2023-01-17T00:51:52.314Z,2.40
2023-01-17T00:54:38.071Z,2.40
2023-01-17T00:57:24.960Z,2.40
2023-01-17T01:00:10.536Z,2.40
2023-01-17T01:02:56.375Z,2.40
2023-01-17T01:05:42.619Z,2.40
2023-01-17T01:08:38.736Z,2.40
2023-01-17T01:11:26.397Z,2.40
2023-01-17T01:14:11.679Z,2.40
2023-01-17T01:16:57.216Z,2.40
2023-01-17T01:19:42.599Z,2.40
2023-01-17T01:22:28.300Z,2.40
2023-01-17T01:25:13.789Z,2.30
2023-01-17T01:27:59.107Z,2.30
2023-01-17T01:30:44.439Z,2.40
2023-01-17T01:33:19.839Z,2.40
2023-01-17T01:35:52.437Z,2.40
2023-01-17T01:38:21.552Z,2.40
2023-01-17T01:40:50.563Z,2.40
2023-01-17T01:43:20.374Z,2.40
2023-01-17T01:45:54.709Z,2.40
2023-01-17T01:48:41.956Z,2.40
2023-01-17T01:51:15.953Z,2.40
2023-01-17T01:53:45.622Z,2.50
2023-01-17T01:56:15.114Z,2.50
2023-01-17T01:58:46.050Z,2.50
2023-01-17T02:01:13.506Z,2.50
2023-01-17T02:03:41.801Z,2.50
2023-01-17T02:06:35.060Z,2.50
2023-01-17T02:09:08.491Z,2.50
2023-01-17T02:11:37.349Z,2.50
2023-01-17T02:14:04.824Z,2.50
2023-01-17T02:16:45.794Z,2.50
2023-01-17T02:19:31.857Z,2.50
2023-01-17T02:22:15.540Z,2.50
2023-01-17T02:25:08.800Z,2.50
2023-01-17T02:28:04.272Z,2.50
2023-01-17T02:30:39.364Z,2.50
2023-01-17T02:33:16.507Z,2.50
2023-01-17T02:35:56.794Z,2.50
2023-01-17T02:38:51.549Z,2.50
2023-01-17T02:41:36.378Z,2.50
2023-01-17T02:44:04.042Z,2.50
2023-01-17T02:46:31.262Z,2.50
2023-01-17T02:48:58.760Z,2.50
2023-01-17T02:51:41.993Z,2.50
2023-01-17T02:54:39.806Z,2.50
2023-01-17T02:57:35.491Z,2.60
2023-01-17T03:00:35.920Z,2.60
2023-01-17T03:03:13.722Z,2.60
2023-01-17T03:05:49.920Z,2.60
2023-01-17T03:08:18.323Z,2.60
2023-01-17T03:10:46.020Z,2.60
2023-01-17T03:13:12.980Z,2.60
2023-01-17T03:15:40.825Z,2.60
2023-01-17T03:18:12.758Z,2.60
2023-01-17T03:20:39.944Z,2.60
2023-01-17T03:23:06.850Z,2.60
2023-01-17T03:25:33.793Z,2.50
2023-01-17T03:28:00.743Z,2.50
2023-01-17T03:30:27.709Z,2.50
2023-01-17T03:32:54.519Z,2.50
2023-01-17T03:35:21.276Z,2.50
2023-01-17T03:37:48.823Z,2.50
2023-01-17T03:40:15.776Z,2.50
2023-01-17T03:42:42.819Z,2.50
2023-01-17T03:45:09.963Z,2.40
2023-01-17T03:47:36.797Z,2.40
2023-01-17T03:50:04.184Z,2.40
2023-01-17T03:52:31.063Z,2.40
2023-01-17T03:54:57.933Z,2.40
2023-01-17T03:57:24.844Z,2.40
2023-01-17T03:59:51.650Z,2.40
2023-01-17T04:02:18.821Z,2.40
2023-01-17T04:04:45.635Z,2.30
2023-01-17T04:07:12.464Z,2.30
2023-01-17T04:09:39.252Z,2.30
2023-01-17T04:12:06.182Z,2.30
2023-01-17T04:14:33.168Z,2.30
2023-01-17T04:17:00.103Z,2.30
2023-01-17T04:19:27.449Z,2.30
2023-01-17T04:21:54.259Z,2.30
2023-01-17T04:24:21.071Z,2.30
2023-01-17T04:26:47.816Z,2.20
2023-01-17T04:29:14.606Z,2.20
2023-01-17T04:31:41.448Z,2.20
2023-01-17T04:34:08.282Z,2.10
2023-01-17T04:36:35.284Z,2.10
2023-01-17T04:39:02.106Z,2.00
2023-01-17T04:41:28.855Z,2.00
2023-01-17T04:43:55.748Z,2.00
2023-01-17T04:46:22.704Z,1.90
2023-01-17T04:48:49.577Z,1.90
2023-01-17T04:51:16.472Z,1.90
2023-01-17T04:53:43.255Z,1.90
2023-01-17T04:56:10.043Z,1.90
2023-01-17T04:58:36.872Z,1.90
2023-01-17T05:01:08.447Z,1.90
2023-01-17T05:03:35.630Z,1.80
2023-01-17T05:06:02.595Z,1.80
2023-01-17T05:08:29.488Z,1.80
2023-01-17T05:10:56.323Z,1.80
2023-01-17T05:13:23.138Z,1.80
2023-01-17T05:15:50.488Z,1.80
2023-01-17T05:18:18.679Z,1.90
2023-01-17T05:20:45.631Z,1.80
2023-01-17T05:23:12.533Z,1.90
2023-01-17T05:25:44.731Z,1.90
2023-01-17T05:28:12.747Z,1.90
2023-01-17T05:30:39.685Z,1.90
2023-01-17T05:33:07.899Z,1.90
2023-01-17T05:35:34.698Z,1.90
2023-01-17T05:38:02.107Z,1.90
2023-01-17T05:40:31.317Z,1.90
2023-01-17T05:42:59.782Z,2.00
2023-01-17T05:45:28.234Z,1.90
2023-01-17T05:47:56.362Z,1.90
2023-01-17T05:50:32.446Z,2.00
2023-01-17T05:53:05.323Z,2.00
2023-01-17T05:55:32.212Z,1.90
2023-01-17T05:57:59.831Z,2.00
2023-01-17T06:00:27.393Z,1.90
2023-01-17T06:02:55.921Z,1.90
2023-01-17T06:05:23.647Z,1.90
2023-01-17T06:07:51.469Z,1.90
2023-01-17T06:10:20.589Z,1.90
2023-01-17T06:12:48.486Z,1.90
2023-01-17T06:15:17.919Z,1.80
2023-01-17T06:17:44.856Z,1.90
2023-01-17T06:20:12.640Z,1.90
2023-01-17T06:22:39.559Z,1.90
2023-01-17T06:25:07.419Z,1.80
2023-01-17T06:27:34.313Z,1.80
2023-01-17T06:30:01.176Z,1.80
2023-01-17T06:32:28.098Z,1.80
2023-01-17T06:34:55.067Z,1.80
2023-01-17T06:37:21.919Z,1.70
2023-01-17T06:39:49.112Z,1.70
2023-01-17T06:42:16.167Z,1.70
2023-01-17T06:44:42.994Z,1.70
2023-01-17T06:47:09.758Z,1.70
2023-01-17T06:49:36.751Z,1.70
2023-01-17T06:52:03.703Z,1.70
2023-01-17T06:54:30.521Z,1.70
2023-01-17T06:56:57.351Z,1.70
2023-01-17T06:59:24.160Z,1.60
2023-01-17T07:01:51.085Z,1.60
2023-01-17T07:04:17.915Z,1.60
2023-01-17T07:06:44.807Z,1.60
2023-01-17T07:09:11.686Z,1.70
2023-01-17T07:11:38.441Z,1.60
2023-01-17T07:14:05.299Z,1.60
2023-01-17T07:16:33.733Z,1.60
2023-01-17T07:19:00.614Z,1.60
2023-01-17T07:21:27.468Z,1.50
2023-01-17T07:23:54.277Z,1.50
2023-01-17T07:26:21.042Z,1.50
2023-01-17T07:28:47.871Z,1.50
2023-01-17T07:31:14.675Z,1.40
2023-01-17T07:33:41.528Z,1.40
2023-01-17T07:36:09.331Z,1.40
2023-01-17T07:38:36.480Z,1.40
2023-01-17T07:41:03.620Z,1.30
2023-01-17T07:43:30.450Z,1.30
2023-01-17T07:45:57.512Z,1.30
2023-01-17T07:48:24.973Z,1.30
2023-01-17T07:50:53.306Z,1.30
2023-01-17T07:53:21.325Z,1.30
2023-01-17T07:55:48.112Z,1.30
2023-01-17T07:58:15.387Z,1.30
2023-01-17T08:00:44.317Z,1.20
2023-01-17T08:03:17.120Z,1.30
2023-01-17T08:05:52.513Z,1.30
2023-01-17T08:08:19.358Z,1.30
2023-01-17T08:10:46.159Z,1.30
2023-01-17T08:13:12.973Z,1.40
2023-01-17T08:15:39.785Z,1.40
2023-01-17T08:18:06.582Z,1.40
2023-01-17T08:20:33.378Z,1.50
2023-01-17T08:23:00.156Z,1.50
2023-01-17T08:25:27.154Z,1.50
2023-01-17T08:27:57.773Z,1.50
2023-01-17T08:30:25.534Z,1.60
2023-01-17T08:32:52.449Z,1.60
2023-01-17T08:35:22.995Z,1.60
2023-01-17T08:37:54.414Z,1.60
2023-01-17T08:40:22.101Z,1.70
2023-01-17T08:42:56.991Z,1.70
2023-01-17T08:45:24.604Z,1.70
2023-01-17T08:47:52.075Z,1.80
2023-01-17T08:50:20.682Z,1.80
2023-01-17T08:52:51.407Z,1.80
2023-01-17T08:55:18.193Z,1.80
2023-01-17T08:57:45.079Z,1.80
2023-01-17T09:00:12.310Z,1.80
2023-01-17T09:02:39.091Z,1.80
2023-01-17T09:05:06.568Z,1.80
2023-01-17T09:07:33.599Z,1.80
2023-01-17T09:10:00.399Z,1.80
2023-01-17T09:12:27.439Z,1.80
2023-01-17T09:14:54.354Z,1.80
2023-01-17T09:17:21.161Z,1.80
2023-01-17T09:19:48.825Z,1.80
2023-01-17T09:22:15.785Z,1.80
2023-01-17T09:24:42.751Z,1.80
2023-01-17T09:27:09.572Z,1.90
2023-01-17T09:29:36.378Z,1.90
2023-01-17T09:32:03.431Z,1.90
2023-01-17T09:34:30.602Z,1.90
2023-01-17T09:36:57.595Z,1.90
2023-01-17T09:39:24.534Z,2.00
2023-01-17T09:42:08.819Z,2.00
2023-01-17T09:44:42.911Z,2.00
2023-01-17T09:47:34.548Z,2.00
2023-01-17T09:50:15.409Z,2.10
2023-01-17T09:52:42.549Z,2.10
2023-01-17T09:55:17.132Z,2.10
2023-01-17T09:58:02.366Z,2.10
2023-01-17T10:00:46.622Z,2.20
2023-01-17T10:03:26.359Z,2.20
2023-01-17T10:05:56.169Z,2.20
2023-01-17T10:08:45.968Z,2.30
2023-01-17T10:11:15.639Z,2.30
2023-01-17T10:13:57.746Z,2.30
2023-01-17T10:16:43.590Z,2.30
2023-01-17T10:19:35.112Z,2.40
2023-01-17T10:22:26.658Z,2.40
2023-01-17T10:25:04.149Z,2.50
2023-01-17T10:27:36.732Z,2.50
2023-01-17T10:30:15.003Z,2.50
2023-01-17T10:32:47.849Z,2.60
2023-01-17T10:35:22.784Z,2.60
2023-01-17T10:37:52.502Z,2.60
2023-01-17T10:40:26.309Z,2.60
2023-01-17T10:43:14.920Z,2.70
2023-01-17T10:45:48.874Z,2.70
2023-01-17T10:48:39.698Z,2.70
2023-01-17T10:52:02.413Z,2.70
2023-01-17T10:54:51.393Z,2.80
2023-01-17T10:57:27.116Z,2.80
2023-01-17T10:59:59.717Z,2.80
2023-01-17T11:02:36.609Z,2.80
2023-01-17T11:05:25.097Z,2.90
2023-01-17T11:08:01.878Z,2.90
2023-01-17T11:10:39.722Z,3.00
2023-01-17T11:13:20.309Z,3.00
2023-01-17T11:19:21.286Z,3.10
2023-01-17T11:21:54.523Z,3.20
2023-01-17T11:24:29.970Z,3.20
2023-01-17T11:26:57.635Z,3.20
2023-01-17T11:29:27.591Z,3.20
2023-01-17T11:31:56.236Z,3.20
2023-01-17T11:34:25.513Z,3.30
2023-01-17T11:37:14.223Z,3.40
2023-01-17T11:39:42.477Z,3.40
2023-01-17T11:42:38.364Z,3.50
2023-01-17T11:45:24.767Z,3.50
2023-01-17T11:48:12.845Z,3.50
2023-01-17T11:50:54.702Z,3.60
2023-01-17T11:53:34.465Z,3.60
2023-01-17T11:56:11.662Z,3.60
2023-01-17T11:58:42.240Z,3.60
2023-01-17T12:01:11.806Z,3.70
2023-01-17T12:03:54.144Z,3.70
2023-01-17T12:06:57.793Z,3.70
2023-01-17T12:09:34.213Z,3.70
2023-01-17T12:12:22.614Z,3.80
2023-01-17T12:15:03.910Z,3.70
2023-01-17T12:17:39.573Z,3.80
2023-01-17T12:20:31.258Z,3.70
2023-01-17T12:23:16.445Z,3.70
2023-01-17T12:25:43.272Z,3.80
2023-01-17T12:28:46.158Z,3.80
2023-01-17T12:31:24.871Z,3.80
2023-01-17T12:34:07.241Z,3.70
2023-01-17T12:36:38.924Z,3.70
2023-01-17T12:39:11.987Z,3.70
2023-01-17T12:41:48.619Z,3.70
2023-01-17T12:44:18.280Z,3.60
2023-01-17T12:47:02.561Z,3.60
2023-01-17T12:50:05.223Z,3.60
2023-01-17T12:52:34.965Z,3.70
2023-01-17T12:55:09.710Z,3.70
2023-01-17T12:57:44.948Z,3.70
2023-01-17T13:00:20.249Z,3.70
2023-01-17T13:03:03.891Z,3.70
2023-01-17T13:05:40.876Z,3.70
2023-01-17T13:08:29.677Z,3.70
2023-01-17T13:11:15.774Z,3.70
2023-01-17T13:13:43.381Z,3.70
2023-01-17T13:16:17.479Z,3.60
2023-01-17T13:18:48.910Z,3.60
2023-01-17T13:21:33.773Z,3.50
2023-01-17T13:24:03.282Z,3.50
2023-01-17T13:26:51.546Z,3.50
2023-01-17T13:29:36.441Z,3.50
2023-01-17T13:32:32.559Z,3.50
2023-01-17T13:35:20.115Z,3.50
2023-01-17T13:38:08.036Z,3.50
2023-01-17T13:40:54.704Z,3.50
2023-01-17T13:43:28.843Z,3.50
2023-01-17T13:45:58.055Z,3.50
2023-01-17T13:48:30.799Z,3.60
2023-01-17T13:51:08.827Z,3.50
2023-01-17T13:53:35.572Z,3.60
2023-01-17T13:56:28.063Z,3.60
2023-01-17T13:59:02.200Z,3.60
2023-01-17T14:01:32.165Z,3.60
2023-01-17T14:04:02.472Z,3.50
2023-01-17T14:06:48.976Z,3.50
2023-01-17T14:09:20.928Z,3.50
2023-01-17T14:11:56.968Z,3.50
2023-01-17T14:14:43.022Z,3.50
2023-01-17T14:17:20.350Z,3.50
2023-01-17T14:19:52.885Z,3.50
2023-01-17T14:22:26.511Z,3.50
2023-01-17T14:25:11.769Z,3.50
2023-01-17T14:27:48.705Z,3.40
2023-01-17T14:30:32.537Z,3.40
2023-01-17T14:32:59.360Z,3.40
2023-01-17T14:35:35.370Z,3.30
2023-01-17T14:38:05.286Z,3.30
2023-01-17T14:40:33.739Z,3.30
2023-01-17T14:43:07.444Z,3.30
2023-01-17T14:45:36.026Z,3.30
2023-01-17T14:48:06.768Z,3.30
2023-01-17T14:50:42.521Z,3.30
2023-01-17T14:53:15.590Z,3.30
2023-01-17T14:55:48.423Z,3.30
2023-01-17T14:58:41.561Z,3.20
2023-01-17T15:01:14.225Z,3.20
2023-01-17T15:03:46.065Z,3.20
2023-01-17T15:06:18.532Z,3.20
2023-01-17T15:08:46.604Z,3.20
2023-01-17T15:11:21.456Z,3.20
2023-01-17T15:13:51.634Z,3.20
2023-01-17T15:16:28.604Z,3.10
2023-01-17T15:18:57.200Z,3.10
2023-01-17T15:21:32.966Z,3.10
2023-01-17T15:24:06.876Z,3.00
2023-01-17T15:26:43.521Z,3.00
2023-01-17T15:29:23.708Z,3.00
2023-01-17T15:31:54.025Z,3.00
2023-01-17T15:34:27.540Z,3.00
2023-01-17T15:37:00.018Z,3.00
2023-01-17T15:39:42.213Z,2.90
2023-01-17T15:42:27.849Z,2.90
2023-01-17T15:44:57.990Z,2.90
2023-01-17T15:47:30.712Z,2.90
2023-01-17T15:49:58.007Z,2.90
2023-01-17T15:52:25.026Z,2.90
2023-01-17T15:54:54.559Z,2.80
2023-01-17T15:57:28.933Z,2.90
2023-01-17T16:00:14.735Z,2.90
2023-01-17T16:02:55.412Z,2.90
2023-01-17T16:05:22.796Z,2.90
2023-01-17T16:07:57.881Z,2.80
2023-01-17T16:10:31.798Z,2.80
2023-01-17T16:12:59.797Z,2.90
2023-01-17T16:15:28.129Z,2.80
2023-01-17T16:18:01.800Z,2.90
2023-01-17T16:20:39.497Z,2.80
2023-01-17T16:23:13.796Z,2.90
2023-01-17T16:25:40.591Z,2.90
2023-01-17T16:28:07.503Z,2.90
2023-01-17T16:30:34.374Z,2.80
2023-01-17T16:33:02.703Z,2.80
2023-01-17T16:35:32.494Z,2.80
2023-01-17T16:38:11.583Z,2.80
2023-01-17T16:40:46.763Z,2.80
2023-01-17T16:43:15.452Z,2.80
2023-01-17T16:45:45.456Z,2.80
2023-01-17T16:48:16.346Z,2.80
2023-01-17T16:50:48.202Z,2.80
2023-01-17T16:53:18.076Z,2.80
2023-01-17T16:55:44.953Z,2.80
2023-01-17T16:58:11.790Z,2.80
2023-01-17T17:00:40.090Z,2.80
2023-01-17T17:03:07.299Z,2.80
2023-01-17T17:05:34.194Z,2.80
2023-01-17T17:08:01.102Z,2.80
2023-01-17T17:10:27.961Z,2.70
2023-01-17T17:12:54.878Z,2.70
2023-01-17T17:15:21.736Z,2.70
2023-01-17T17:17:48.681Z,2.70
2023-01-17T17:20:16.053Z,2.70
2023-01-17T17:22:48.926Z,2.60
2023-01-17T17:25:15.962Z,2.60
2023-01-17T17:27:43.165Z,2.50
2023-01-17T17:30:10.766Z,2.50
2023-01-17T17:32:37.629Z,2.50
2023-01-17T17:35:05.172Z,2.50
2023-01-17T17:37:32.187Z,2.40
2023-01-17T17:39:59.016Z,2.40
2023-01-17T17:42:26.336Z,2.40
2023-01-17T17:44:53.578Z,2.30
2023-01-17T17:47:20.451Z,2.30
2023-01-17T17:49:47.417Z,2.30
2023-01-17T17:52:14.242Z,2.30
2023-01-17T17:54:41.071Z,2.20
2023-01-17T17:57:07.871Z,2.20
2023-01-17T17:59:34.769Z,2.20
2023-01-17T18:02:01.677Z,2.20
2023-01-17T18:04:28.602Z,2.10
2023-01-17T18:06:57.354Z,2.10
2023-01-17T18:09:24.381Z,2.10
2023-01-17T18:11:51.215Z,2.10
2023-01-17T18:14:20.977Z,2.10
2023-01-17T18:16:48.209Z,2.10
2023-01-17T18:19:19.295Z,2.00
2023-01-17T18:21:46.258Z,2.00
2023-01-17T18:24:15.508Z,2.00
2023-01-17T18:26:44.736Z,2.10
2023-01-17T18:29:16.536Z,2.00
2023-01-17T18:31:45.061Z,2.10
2023-01-17T18:34:15.371Z,2.00
2023-01-17T18:36:42.563Z,2.00
2023-01-17T18:39:18.241Z,2.10
2023-01-17T18:41:45.713Z,2.00
2023-01-17T18:44:12.593Z,2.00
2023-01-17T18:46:40.313Z,2.10
2023-01-17T18:49:07.847Z,2.10
2023-01-17T18:51:34.928Z,2.10
2023-01-17T18:54:06.803Z,2.10
2023-01-17T18:56:34.767Z,2.00
2023-01-17T18:59:01.998Z,2.00
2023-01-17T19:01:31.192Z,1.90
2023-01-17T19:04:00.383Z,1.90
2023-01-17T19:06:30.391Z,1.90
2023-01-17T19:08:58.369Z,1.90
2023-01-17T19:11:26.499Z,1.90
2023-01-17T19:13:53.835Z,1.90
2023-01-17T19:16:24.516Z,1.90
2023-01-17T19:18:52.722Z,1.90
2023-01-17T19:21:21.754Z,1.90
2023-01-17T19:23:48.898Z,1.90
2023-01-17T19:26:17.163Z,1.90
2023-01-17T19:28:45.686Z,1.90
2023-01-17T19:31:15.124Z,1.90
2023-01-17T19:33:44.932Z,1.90
2023-01-17T19:36:16.877Z,1.90
2023-01-17T19:38:52.261Z,1.90
2023-01-17T19:41:27.244Z,1.90
2023-01-17T19:43:58.227Z,1.90
2023-01-17T19:46:27.418Z,1.90
2023-01-17T19:48:55.906Z,1.90
2023-01-17T19:51:23.655Z,2.00
2023-01-17T19:53:50.595Z,2.00
2023-01-17T19:56:19.512Z,1.90
2023-01-17T19:58:47.623Z,1.90
2023-01-17T20:01:20.778Z,1.90
2023-01-17T20:03:48.889Z,1.90
2023-01-17T20:06:19.145Z,1.90
2023-01-17T20:08:46.307Z,1.90
2023-01-17T20:11:15.843Z,1.90
2023-01-17T20:13:43.013Z,1.90
2023-01-17T20:16:11.766Z,1.90
2023-01-17T20:18:38.818Z,1.90
2023-01-17T20:21:07.696Z,1.90
2023-01-17T20:23:36.329Z,1.90
2023-01-17T20:26:04.643Z,1.90
2023-01-17T20:28:33.635Z,1.90
2023-01-17T20:31:12.795Z,1.90
2023-01-17T20:33:41.109Z,1.90
2023-01-17T20:36:11.388Z,1.90
2023-01-17T20:38:45.377Z,1.90
2023-01-17T20:41:17.945Z,1.90
2023-01-17T20:43:47.567Z,1.80
2023-01-17T20:46:15.588Z,1.80
2023-01-17T20:48:47.515Z,1.80
2023-01-17T20:51:14.838Z,1.80
2023-01-17T20:53:43.489Z,1.80
2023-01-17T20:56:12.400Z,1.80
2023-01-17T20:58:39.859Z,1.80
2023-01-17T21:01:09.484Z,1.80
2023-01-17T21:03:37.791Z,1.80
2023-01-17T21:06:09.814Z,1.80
2023-01-17T21:08:38.960Z,1.70
2023-01-17T21:11:07.171Z,1.70
2023-01-17T21:13:34.371Z,1.80
2023-01-17T21:16:02.376Z,1.70
2023-01-17T21:18:31.930Z,1.70
2023-01-17T21:21:11.013Z,1.70
2023-01-17T21:23:39.529Z,1.70
2023-01-17T21:26:07.954Z,1.70
2023-01-17T21:28:38.072Z,1.70
2023-01-17T21:31:19.485Z,1.70
2023-01-17T21:33:47.574Z,1.70
2023-01-17T21:36:14.473Z,1.70
2023-01-17T21:38:41.364Z,1.70
2023-01-17T21:41:08.156Z,1.80
2023-01-17T21:43:35.164Z,1.80
2023-01-17T21:46:04.608Z,1.80
2023-01-17T21:48:31.827Z,1.80
2023-01-17T21:51:08.949Z,1.80
2023-01-17T21:53:37.836Z,1.80
2023-01-17T21:56:25.832Z,1.80
2023-01-17T21:58:56.761Z,1.80
2023-01-17T22:01:29.439Z,1.90
2023-01-17T22:03:59.206Z,1.80
2023-01-17T22:06:32.069Z,1.80
2023-01-17T22:08:59.116Z,1.80
2023-01-17T22:11:27.567Z,1.80
2023-01-17T22:13:54.490Z,1.80
2023-01-17T22:16:23.717Z,1.80
2023-01-17T22:18:51.307Z,1.80
2023-01-17T22:21:28.491Z,1.80
2023-01-17T22:23:57.570Z,1.80
2023-01-17T22:26:27.213Z,1.80
2023-01-17T22:28:54.930Z,1.80
2023-01-17T22:31:25.376Z,1.80
2023-01-17T22:34:02.289Z,1.80
2023-01-17T22:36:32.120Z,1.90
2023-01-17T22:38:59.057Z,1.80
2023-01-17T22:41:29.759Z,1.80
2023-01-17T22:43:58.855Z,1.80
2023-01-17T22:46:28.312Z,1.80
2023-01-17T22:48:56.444Z,1.80
2023-01-17T22:51:24.739Z,1.80
2023-01-17T22:53:54.112Z,1.80
2023-01-17T22:56:23.837Z,1.80
2023-01-17T22:58:50.844Z,1.80
2023-01-17T23:01:25.956Z,1.90
2023-01-17T23:03:55.238Z,1.80
2023-01-17T23:06:28.405Z,1.90
2023-01-17T23:08:57.237Z,1.90
2023-01-17T23:11:43.393Z,1.90
2023-01-17T23:14:25.312Z,1.90
2023-01-17T23:17:12.841Z,1.90
2023-01-17T23:19:45.773Z,1.80
2023-01-17T23:22:21.081Z,1.80
2023-01-17T23:25:10.884Z,1.80
2023-01-17T23:28:04.385Z,1.80
2023-01-17T23:30:40.209Z,1.80
2023-01-17T23:33:12.694Z,1.80
2023-01-17T23:35:42.513Z,1.80
2023-01-17T23:38:25.933Z,1.70
2023-01-17T23:41:12.296Z,1.70
2023-01-17T23:43:39.085Z,1.70
2023-01-17T23:46:10.300Z,1.70
2023-01-17T23:48:37.229Z,1.70
2023-01-17T23:51:08.161Z,1.70
2023-01-17T23:53:36.728Z,1.70
2023-01-17T23:56:18.441Z,1.70
2023-01-17T23:58:45.589Z,1.70
